Suntree, Florida
Current Conditions -  °F | °C
As of 12:53 AM on Friday 19 Dec 2014 (Local Time) from KMLB Reporting Station
Clear Clear  
Wind Chill: 53°   Ceiling: Unl
Heat Index: 53°   Visibility: 10mi
Dew Point: 50°   Wind: 3mph
Humidity: 89%   Direction: 280°W
Pressure: 30.11"   Gusts: NA
Location:  28.1311°N, 80.6548°W
Report Text: KMLB 190553Z AUTO 28003KT 10SM CLR 12/10 A3011 RMK AO2 SLP194 T01170100 10150 20106 58004
Loading
Personal Weather Stations






























Interactive Weather Map New forecast layout! Learn more

10-Day Weather Forecast

Advertisements
Track Severe Weather on mobile